Time;durP1;ratioP1;P1;durP2;ratioP2;P2;SDS_P1;SDS_P2;PMS_P1;PMS_P2;Temp;Humidity;BMP_temperature;BMP_pressure;BME280_temperature;BME280_humidity;BME280_pressure;Samples;Min_cycle;Max_cycle;Signal;HPM_P1;HPM_P2
2023/10/24 00:00:02;;;;;;;27.83;14.60;;;;;;;;;;5015904;28;20163;-58
2023/10/24 00:02:49;;;;;;;30.98;14.70;;;;;;;;;;5015188;28;20049;-59
2023/10/24 00:05:44;;;;;;;24.25;12.77;;;;;;;;;;5014987;28;20444;-50
2023/10/24 00:08:31;;;;;;;27.52;12.63;;;;;;;;;;5021191;28;20562;-48
2023/10/24 00:11:24;;;;;;;26.25;12.73;;;;;;;;;;5017884;28;20050;-48
2023/10/24 00:14:18;;;;;;;27.00;13.68;;;;;;;;;;5016970;28;20179;-47
2023/10/24 00:17:06;;;;;;;29.23;14.30;;;;;;;;;;5015760;28;20073;-51
2023/10/24 00:19:59;;;;;;;35.28;15.25;;;;;;;;;;5007525;28;20058;-47
2023/10/24 00:22:47;;;;;;;31.73;15.00;;;;;;;;;;5015734;28;20572;-59
2023/10/24 00:25:40;;;;;;;25.95;13.57;;;;;;;;;;5010515;28;20115;-61
2023/10/24 00:28:28;;;;;;;26.15;13.63;;;;;;;;;;5013923;28;20909;-62
2023/10/24 00:31:21;;;;;;;24.08;13.52;;;;;;;;;;5012562;28;20119;-61
2023/10/24 00:34:16;;;;;;;23.13;12.00;;;;;;;;;;5010358;28;20100;-62
2023/10/24 00:37:03;;;;;;;23.48;11.75;;;;;;;;;;5012681;28;20050;-61
2023/10/24 00:39:57;;;;;;;30.55;13.00;;;;;;;;;;5012524;28;20061;-59
2023/10/24 00:42:45;;;;;;;23.67;13.25;;;;;;;;;;5014406;28;20050;-61
2023/10/24 00:45:39;;;;;;;21.63;11.48;;;;;;;;;;5012578;28;20053;-61
2023/10/24 00:48:34;;;;;;;19.90;10.82;;;;;;;;;;5008053;28;20902;-62
2023/10/24 00:51:28;;;;;;;17.48;10.50;;;;;;;;;;5013420;28;20498;-62
2023/10/24 00:54:21;;;;;;;21.55;11.73;;;;;;;;;;5013438;28;20502;-61
2023/10/24 00:57:15;;;;;;;23.23;10.70;;;;;;;;;;5011037;28;20050;-62
2023/10/24 01:00:03;;;;;;;17.90;10.20;;;;;;;;;;5011751;28;20049;-63
2023/10/24 01:02:56;;;;;;;16.55;10.23;;;;;;;;;;5013226;28;20530;-66
2023/10/24 01:05:50;;;;;;;21.77;11.15;;;;;;;;;;5014394;28;20137;-65
2023/10/24 01:08:38;;;;;;;22.15;12.07;;;;;;;;;;5013271;28;20053;-64
2023/10/24 01:11:31;;;;;;;24.65;12.77;;;;;;;;;;5009943;28;20696;-66
2023/10/24 01:14:19;;;;;;;22.85;12.18;;;;;;;;;;5012005;28;20132;-64
2023/10/24 01:17:13;;;;;;;22.48;12.25;;;;;;;;;;5006788;28;21710;-59
2023/10/24 01:20:04;;;;;;;19.67;11.57;;;;;;;;;;5009218;28;20518;-62
2023/10/24 01:22:57;;;;;;;22.08;9.77;;;;;;;;;;5014408;28;20100;-62
2023/10/24 01:25:45;;;;;;;17.67;10.90;;;;;;;;;;5012312;28;20107;-63
2023/10/24 01:28:39;;;;;;;18.00;10.77;;;;;;;;;;5012012;28;20116;-62
2023/10/24 01:31:33;;;;;;;16.65;10.00;;;;;;;;;;5014035;28;20135;-63
2023/10/24 01:34:21;;;;;;;15.25;9.20;;;;;;;;;;5009871;28;20042;-60
2023/10/24 01:37:14;;;;;;;14.50;9.18;;;;;;;;;;5011356;28;20061;-61
2023/10/24 01:40:03;;;;;;;14.45;9.98;;;;;;;;;;5011369;28;20569;-50
2023/10/24 01:42:56;;;;;;;17.33;9.30;;;;;;;;;;5012409;28;20071;-53
2023/10/24 01:45:43;;;;;;;13.77;8.30;;;;;;;;;;5011246;28;20053;-49
2023/10/24 01:48:38;;;;;;;17.15;9.23;;;;;;;;;;5010364;28;20049;-50
2023/10/24 01:51:31;;;;;;;15.15;8.35;;;;;;;;;;5013564;28;20112;-53
2023/10/24 01:54:25;;;;;;;13.32;8.30;;;;;;;;;;5013326;28;20044;-65
2023/10/24 01:57:26;;;;;;;13.88;7.72;;;;;;;;;;5012677;28;20053;-58
2023/10/24 02:00:20;;;;;;;12.20;7.30;;;;;;;;;;5008608;28;20496;-58
2023/10/24 02:03:07;;;;;;;11.93;6.78;;;;;;;;;;5010514;28;20061;-58
2023/10/24 02:06:01;;;;;;;9.95;6.60;;;;;;;;;;5011932;28;20054;-58
2023/10/24 02:08:50;;;;;;;13.30;7.78;;;;;;;;;;5013286;28;20053;-58
2023/10/24 02:11:45;;;;;;;12.52;7.45;;;;;;;;;;5011157;28;20050;-58
2023/10/24 02:14:32;;;;;;;11.75;7.90;;;;;;;;;;5012536;28;20100;-59
2023/10/24 02:17:26;;;;;;;14.50;8.70;;;;;;;;;;5007178;28;20045;-59
2023/10/24 02:20:13;;;;;;;12.38;7.93;;;;;;;;;;5008050;28;20267;-59
2023/10/24 02:23:07;;;;;;;12.60;8.02;;;;;;;;;;5009450;28;20452;-59
2023/10/24 02:25:54;;;;;;;10.73;7.65;;;;;;;;;;5011082;28;20451;-59
2023/10/24 02:28:50;;;;;;;9.50;6.32;;;;;;;;;;5015248;28;20088;-59
2023/10/24 02:31:37;;;;;;;9.93;6.53;;;;;;;;;;5010918;28;20680;-58
2023/10/24 02:34:32;;;;;;;15.00;6.82;;;;;;;;;;5011609;28;20061;-47
2023/10/24 02:37:20;;;;;;;10.63;6.85;;;;;;;;;;5012708;28;20175;-50
2023/10/24 02:40:15;;;;;;;11.45;6.45;;;;;;;;;;5010538;28;20132;-53
2023/10/24 02:43:01;;;;;;;8.73;6.15;;;;;;;;;;5012482;28;20058;-50
2023/10/24 02:45:55;;;;;;;12.18;7.53;;;;;;;;;;5009951;28;20057;-50
2023/10/24 02:48:42;;;;;;;9.63;6.80;;;;;;;;;;5006395;28;20121;-59
2023/10/24 02:51:37;;;;;;;12.65;7.55;;;;;;;;;;5013581;28;20435;-61
2023/10/24 02:54:30;;;;;;;11.98;7.43;;;;;;;;;;5013710;28;20053;-62
2023/10/24 02:57:31;;;;;;;13.88;7.47;;;;;;;;;;5016420;28;20411;-61
2023/10/24 03:00:18;;;;;;;12.10;7.00;;;;;;;;;;5013243;28;20128;-61
2023/10/24 03:03:13;;;;;;;9.93;6.60;;;;;;;;;;5014346;28;20049;-62
2023/10/24 03:06:00;;;;;;;11.20;7.22;;;;;;;;;;5014312;28;20054;-50
2023/10/24 03:08:55;;;;;;;11.35;6.68;;;;;;;;;;5010283;28;20061;-58
2023/10/24 03:11:42;;;;;;;10.88;6.70;;;;;;;;;;5015781;28;20118;-47
2023/10/24 03:14:36;;;;;;;13.10;6.13;;;;;;;;;;5018225;28;20536;-51
2023/10/24 03:17:23;;;;;;;10.43;6.33;;;;;;;;;;5015878;28;20045;-51
2023/10/24 03:20:18;;;;;;;10.68;6.50;;;;;;;;;;5012608;28;20124;-46
2023/10/24 03:23:11;;;;;;;10.75;6.50;;;;;;;;;;5014618;28;20049;-49
2023/10/24 03:25:59;;;;;;;13.23;6.70;;;;;;;;;;5012025;28;20139;-58
2023/10/24 03:28:53;;;;;;;9.90;5.95;;;;;;;;;;5016940;28;20057;-59
2023/10/24 03:31:41;;;;;;;9.13;5.95;;;;;;;;;;5012019;28;20115;-59
2023/10/24 03:34:38;;;;;;;12.45;6.47;;;;;;;;;;5016103;28;20581;-60
2023/10/24 03:37:26;;;;;;;8.32;5.65;;;;;;;;;;5013344;28;20049;-59
2023/10/24 03:40:21;;;;;;;10.75;6.13;;;;;;;;;;5013811;28;20131;-58
2023/10/24 03:43:07;;;;;;;8.77;6.13;;;;;;;;;;5013932;28;20057;-49
2023/10/24 03:46:05;;;;;;;9.48;6.18;;;;;;;;;;5011652;28;20050;-58
2023/10/24 03:48:52;;;;;;;10.18;5.90;;;;;;;;;;5016756;28;20459;-59
2023/10/24 03:51:47;;;;;;;9.90;6.25;;;;;;;;;;5013466;28;20053;-58
2023/10/24 03:54:40;;;;;;;11.02;5.57;;;;;;;;;;5011294;28;20554;-58
2023/10/24 03:57:34;;;;;;;9.90;6.35;;;;;;;;;;5015439;28;20045;-58
2023/10/24 04:00:07;;;;;;;13.18;6.55;;;;;;;;;;5018050;28;20064;-58
2023/10/24 04:02:35;;;;;;;10.10;6.22;;;;;;;;;;5005457;28;20057;-58
2023/10/24 04:05:32;;;;;;;10.18;6.80;;;;;;;;;;5015864;28;20057;-59
2023/10/24 04:08:18;;;;;;;9.30;6.45;;;;;;;;;;5009445;28;20084;-56
2023/10/24 04:11:16;;;;;;;14.15;6.43;;;;;;;;;;5016344;28;20544;-58
2023/10/24 04:14:03;;;;;;;10.77;6.55;;;;;;;;;;5012909;28;20191;-58
2023/10/24 04:16:57;;;;;;;11.18;7.07;;;;;;;;;;5013533;28;20488;-58
2023/10/24 04:19:46;;;;;;;10.32;6.60;;;;;;;;;;5015001;28;20125;-48
2023/10/24 04:22:43;;;;;;;16.00;7.55;;;;;;;;;;5012179;28;20709;-58
2023/10/24 04:25:30;;;;;;;12.57;7.47;;;;;;;;;;5014704;28;20050;-59
2023/10/24 04:28:23;;;;;;;16.13;8.20;;;;;;;;;;5016052;28;20426;-59
2023/10/24 04:31:11;;;;;;;12.48;7.93;;;;;;;;;;5012513;28;20045;-59
2023/10/24 04:34:04;;;;;;;11.88;7.60;;;;;;;;;;5011061;28;20060;-59
2023/10/24 04:36:53;;;;;;;14.02;8.88;;;;;;;;;;5007380;28;20155;-59
2023/10/24 04:39:45;;;;;;;16.08;8.80;;;;;;;;;;5007676;28;20442;-65
2023/10/24 04:42:33;;;;;;;14.45;8.27;;;;;;;;;;5016214;28;21042;-65
2023/10/24 04:45:07;;;;;;;12.50;8.02;;;;;;;;;;5010159;28;20150;-65
2023/10/24 04:47:54;;;;;;;16.58;9.30;;;;;;;;;;5003854;28;20053;-65
2023/10/24 04:50:51;;;;;;;18.30;9.30;;;;;;;;;;5001733;28;20056;-65
2023/10/24 04:53:44;;;;;;;17.63;10.23;;;;;;;;;;4996930;28;20850;-65
2023/10/24 04:56:25;;;;;;;17.88;9.32;;;;;;;;;;5003335;28;20127;-52
2023/10/24 04:59:13;;;;;;;20.23;9.57;;;;;;;;;;5003522;28;20188;-48
2023/10/24 05:02:06;;;;;;;17.77;9.57;;;;;;;;;;5016347;28;20053;-58
2023/10/24 05:04:54;;;;;;;18.65;9.73;;;;;;;;;;5016531;28;20058;-58
2023/10/24 05:07:48;;;;;;;17.40;10.30;;;;;;;;;;5017165;28;20049;-58
2023/10/24 05:10:35;;;;;;;20.23;9.02;;;;;;;;;;5015338;28;20515;-58
2023/10/24 05:13:28;;;;;;;18.70;10.02;;;;;;;;;;5016195;28;20457;-59
2023/10/24 05:16:16;;;;;;;19.52;10.35;;;;;;;;;;5015943;28;20041;-64
2023/10/24 05:19:09;;;;;;;20.17;9.88;;;;;;;;;;5015807;28;20046;-62
2023/10/24 05:21:57;;;;;;;15.25;8.45;;;;;;;;;;5015118;28;20561;-62
2023/10/24 05:24:50;;;;;;;21.60;9.75;;;;;;;;;;5014350;28;20054;-62
2023/10/24 05:27:38;;;;;;;18.25;9.80;;;;;;;;;;5019449;28;20046;-62
2023/10/24 05:30:31;;;;;;;18.20;10.13;;;;;;;;;;5014341;28;20470;-62
2023/10/24 05:33:19;;;;;;;20.02;10.38;;;;;;;;;;5021105;28;20057;-53
2023/10/24 05:36:12;;;;;;;20.70;10.25;;;;;;;;;;5013779;28;20057;-58
2023/10/24 05:39:00;;;;;;;15.18;9.40;;;;;;;;;;5013841;28;20112;-58
2023/10/24 05:41:53;;;;;;;17.08;9.30;;;;;;;;;;5014733;28;20049;-58
2023/10/24 05:44:47;;;;;;;16.45;9.07;;;;;;;;;;5014937;28;20045;-58
2023/10/24 05:47:41;;;;;;;15.07;8.63;;;;;;;;;;5018358;28;20050;-59
2023/10/24 05:50:30;;;;;;;21.52;9.57;;;;;;;;;;5018643;28;20515;-58
2023/10/24 05:53:35;;;;;;;14.55;8.45;;;;;;;;;;5016515;28;20747;-61
2023/10/24 05:56:32;;;;;;;15.10;8.65;;;;;;;;;;5017755;28;20049;-59
2023/10/24 05:59:26;;;;;;;15.27;7.22;;;;;;;;;;5014683;28;20581;-59
2023/10/24 06:02:13;;;;;;;10.02;6.22;;;;;;;;;;5015133;28;20049;-59
2023/10/24 06:05:08;;;;;;;12.77;6.65;;;;;;;;;;5015854;28;20511;-59
2023/10/24 06:07:55;;;;;;;8.43;5.25;;;;;;;;;;5018967;28;20509;-59
2023/10/24 06:10:59;;;;;;;7.22;5.15;;;;;;;;;;5018834;28;20130;-53
2023/10/24 06:13:46;;;;;;;7.45;5.30;;;;;;;;;;5014035;28;20115;-60
2023/10/24 06:16:41;;;;;;;6.32;4.45;;;;;;;;;;5014707;28;20462;-60
2023/10/24 06:19:29;;;;;;;7.75;5.47;;;;;;;;;;5013982;28;20060;-60
2023/10/24 06:22:24;;;;;;;9.95;4.90;;;;;;;;;;5013399;28;20068;-59
2023/10/24 06:25:11;;;;;;;6.68;4.82;;;;;;;;;;5014268;28;22154;-60
2023/10/24 06:28:05;;;;;;;7.15;4.90;;;;;;;;;;5010371;28;20144;-61
2023/10/24 06:31:00;;;;;;;9.27;5.30;;;;;;;;;;5013935;28;20112;-62
2023/10/24 06:33:54;;;;;;;8.75;4.80;;;;;;;;;;5014102;28;20061;-65
2023/10/24 06:36:43;;;;;;;11.35;5.93;;;;;;;;;;5016145;28;20418;-65
2023/10/24 06:39:36;;;;;;;7.88;5.28;;;;;;;;;;5012316;28;20046;-65
2023/10/24 06:42:25;;;;;;;8.65;5.40;;;;;;;;;;5016850;28;20470;-66
2023/10/24 06:45:19;;;;;;;8.95;5.50;;;;;;;;;;5011552;28;21081;-65
2023/10/24 06:48:07;;;;;;;7.60;5.22;;;;;;;;;;5015107;28;20049;-50
2023/10/24 06:51:00;;;;;;;9.77;5.30;;;;;;;;;;5013511;28;20104;-58
2023/10/24 06:53:58;;;;;;;7.47;5.57;;;;;;;;;;5017526;28;20076;-58
2023/10/24 06:56:53;;;;;;;8.73;6.43;;;;;;;;;;5017170;28;20115;-58
2023/10/24 06:59:40;;;;;;;9.60;6.00;;;;;;;;;;5016543;28;20443;-58
2023/10/24 07:02:34;;;;;;;12.43;6.90;;;;;;;;;;5015535;28;20049;-58
2023/10/24 07:05:22;;;;;;;15.00;6.93;;;;;;;;;;5008939;28;20100;-58
2023/10/24 07:08:15;;;;;;;12.25;7.40;;;;;;;;;;5011340;28;20510;-59
2023/10/24 07:11:04;;;;;;;12.55;7.97;;;;;;;;;;5013920;28;20541;-58
2023/10/24 07:13:57;;;;;;;12.27;7.85;;;;;;;;;;5011967;28;20443;-58
2023/10/24 07:16:45;;;;;;;12.77;8.02;;;;;;;;;;5014886;28;20053;-58
2023/10/24 07:19:38;;;;;;;14.88;8.02;;;;;;;;;;5014806;28;20570;-58
2023/10/24 07:22:26;;;;;;;15.02;8.90;;;;;;;;;;5010531;28;20499;-59
2023/10/24 07:25:19;;;;;;;13.88;7.80;;;;;;;;;;5011826;28;20053;-63
2023/10/24 07:28:15;;;;;;;15.50;8.25;;;;;;;;;;5011042;28;20108;-51
2023/10/24 07:31:03;;;;;;;11.20;7.30;;;;;;;;;;5014769;28;20140;-53
2023/10/24 07:33:57;;;;;;;12.35;7.53;;;;;;;;;;5015990;28;20054;-50
2023/10/24 07:36:44;;;;;;;12.20;6.85;;;;;;;;;;5015101;28;20447;-53
2023/10/24 07:39:38;;;;;;;10.80;6.47;;;;;;;;;;5020587;28;20175;-55
2023/10/24 07:42:25;;;;;;;12.75;7.13;;;;;;;;;;5017643;28;20049;-48
2023/10/24 07:45:19;;;;;;;12.73;7.68;;;;;;;;;;5017346;28;20499;-59
2023/10/24 07:48:06;;;;;;;14.52;7.70;;;;;;;;;;5021089;28;20046;-59
2023/10/24 07:51:02;;;;;;;13.68;8.85;;;;;;;;;;5020424;28;20057;-58
2023/10/24 07:53:47;;;;;;;17.58;9.88;;;;;;;;;;5016060;28;20171;-58
2023/10/24 07:56:41;;;;;;;15.38;9.82;;;;;;;;;;5021007;28;20103;-59
2023/10/24 07:59:32;;;;;;;17.60;9.75;;;;;;;;;;5015426;28;20414;-59
2023/10/24 08:02:25;;;;;;;14.48;8.25;;;;;;;;;;5021221;28;20056;-63
2023/10/24 08:05:13;;;;;;;14.77;9.15;;;;;;;;;;5017749;28;20053;-58
2023/10/24 08:08:07;;;;;;;17.90;10.00;;;;;;;;;;5016150;28;20126;-58
2023/10/24 08:10:54;;;;;;;15.55;10.85;;;;;;;;;;5019211;28;20442;-58
2023/10/24 08:13:48;;;;;;;16.75;11.35;;;;;;;;;;5016265;28;20513;-58
2023/10/24 08:16:35;;;;;;;18.42;10.70;;;;;;;;;;5014496;28;20049;-58
2023/10/24 08:19:28;;;;;;;17.20;10.93;;;;;;;;;;5018617;28;20943;-63
2023/10/24 08:22:16;;;;;;;20.08;10.90;;;;;;;;;;5016884;28;20045;-57
2023/10/24 08:25:10;;;;;;;19.65;11.43;;;;;;;;;;5016696;28;20140;-59
2023/10/24 08:27:57;;;;;;;18.58;11.40;;;;;;;;;;5015785;28;20596;-56
2023/10/24 08:30:51;;;;;;;14.80;9.20;;;;;;;;;;5015769;28;20057;-58
2023/10/24 08:33:38;;;;;;;19.52;11.02;;;;;;;;;;5014547;28;20571;-58
2023/10/24 08:36:32;;;;;;;17.13;9.68;;;;;;;;;;5016352;28;20065;-58
2023/10/24 08:39:21;;;;;;;15.02;8.93;;;;;;;;;;5014254;28;20061;-56
2023/10/24 08:42:14;;;;;;;15.15;9.68;;;;;;;;;;5018562;28;20049;-59
2023/10/24 08:45:08;;;;;;;13.73;7.60;;;;;;;;;;5015347;28;20103;-58
2023/10/24 08:48:05;;;;;;;15.35;8.43;;;;;;;;;;5021096;28;20288;-58
2023/10/24 08:50:53;;;;;;;12.63;8.40;;;;;;;;;;5018257;28;20239;-58
2023/10/24 08:53:53;;;;;;;12.63;8.45;;;;;;;;;;5015845;28;20041;-58
2023/10/24 08:56:47;;;;;;;13.95;8.00;;;;;;;;;;5015927;28;20041;-64
2023/10/24 08:59:42;;;;;;;12.27;8.55;;;;;;;;;;5019595;28;20554;-65
2023/10/24 09:02:35;;;;;;;12.88;7.57;;;;;;;;;;5013107;28;20623;-65
2023/10/24 09:05:30;;;;;;;12.30;7.43;;;;;;;;;;5019456;28;20127;-65
2023/10/24 09:08:17;;;;;;;11.35;7.50;;;;;;;;;;5012611;28;20115;-65
2023/10/24 09:11:11;;;;;;;13.00;7.30;;;;;;;;;;5010469;28;20137;-65
2023/10/24 09:14:04;;;;;;;10.88;7.78;;;;;;;;;;5015315;28;20139;-51
2023/10/24 09:17:18;;;;;;;12.55;7.13;;;;;;;;;;5016254;28;20049;-64
2023/10/24 09:20:13;;;;;;;10.15;7.07;;;;;;;;;;5017798;28;20350;-65
2023/10/24 09:23:06;;;;;;;13.55;6.68;;;;;;;;;;5016275;28;20520;-64
2023/10/24 09:26:02;;;;;;;9.90;6.93;;;;;;;;;;5015449;28;20107;-64
2023/10/24 09:28:55;;;;;;;13.63;7.57;;;;;;;;;;5011224;28;20599;-65
2023/10/24 09:31:52;;;;;;;10.25;6.22;;;;;;;;;;5016961;28;20064;-65
2023/10/24 09:34:41;;;;;;;8.95;5.90;;;;;;;;;;5014007;28;20053;-64
2023/10/24 09:37:38;;;;;;;12.68;6.53;;;;;;;;;;5012703;28;20049;-48
2023/10/24 09:40:36;;;;;;;15.05;6.72;;;;;;;;;;5013011;28;20522;-47
2023/10/24 09:43:30;;;;;;;12.27;6.40;;;;;;;;;;5013430;28;20049;-47
2023/10/24 09:46:17;;;;;;;;;;;;;;;;;;5016278;28;20050;-49
2023/10/24 09:49:11;;;;;;;9.25;5.00;;;;;;;;;;5016283;28;19939;-48
2023/10/24 09:51:58;;;;;;;7.55;5.70;;;;;;;;;;5016730;28;20164;-61
2023/10/24 09:54:59;;;;;;;9.77;5.53;;;;;;;;;;5017784;28;20061;-46
2023/10/24 09:57:53;;;;;;;9.77;5.57;;;;;;;;;;5012127;28;20123;-45
2023/10/24 10:00:48;;;;;;;7.35;5.72;;;;;;;;;;5014742;28;20107;-47
2023/10/24 10:03:36;;;;;;;10.33;5.80;;;;;;;;;;5013353;28;20135;-48
2023/10/24 10:06:30;;;;;;;6.70;5.25;;;;;;;;;;5016344;28;20046;-47
2023/10/24 10:09:27;;;;;;;7.22;4.75;;;;;;;;;;5015997;28;20065;-58
2023/10/24 10:12:21;;;;;;;7.68;5.22;;;;;;;;;;5014719;28;20072;-62
2023/10/24 10:15:37;;;;;;;11.07;5.22;;;;;;;;;;5015050;28;20462;-62
2023/10/24 10:18:39;;;;;;;10.70;5.38;;;;;;;;;;5015111;28;20400;-62
2023/10/24 10:21:32;;;;;;;13.27;5.78;;;;;;;;;;5012670;28;20076;-62
2023/10/24 10:24:33;;;;;;;7.78;5.43;;;;;;;;;;5016473;28;20072;-62
2023/10/24 10:27:29;;;;;;;7.53;4.88;;;;;;;;;;5018735;28;20068;-58
2023/10/24 10:30:34;;;;;;;7.20;5.38;;;;;;;;;;5016401;28;20439;-62
2023/10/24 10:33:42;;;;;;;7.85;5.78;;;;;;;;;;5013139;28;20049;-58
2023/10/24 10:36:38;;;;;;;9.82;5.03;;;;;;;;;;5013543;28;20051;-59
2023/10/24 10:39:26;;;;;;;7.78;5.05;;;;;;;;;;5015028;28;20158;-58
2023/10/24 10:42:44;;;;;;;8.05;5.50;;;;;;;;;;5016894;28;20135;-58
2023/10/24 10:45:37;;;;;;;9.13;5.40;;;;;;;;;;5016659;28;20050;-52
2023/10/24 10:48:31;;;;;;;9.88;4.80;;;;;;;;;;5016103;28;20099;-62
2023/10/24 10:51:22;;;;;;;6.38;4.38;;;;;;;;;;5011572;28;20510;-59
2023/10/24 10:54:36;;;;;;;6.18;4.55;;;;;;;;;;5013528;28;20194;-59
2023/10/24 10:57:34;;;;;;;6.25;4.63;;;;;;;;;;5018369;28;20053;-59
2023/10/24 11:00:32;;;;;;;7.35;4.95;;;;;;;;;;5017111;28;20746;-59
2023/10/24 11:03:31;;;;;;;8.88;4.57;;;;;;;;;;5015140;28;20057;-59
2023/10/24 11:06:26;;;;;;;5.75;4.07;;;;;;;;;;5015539;28;20129;-59
2023/10/24 11:09:20;;;;;;;7.82;4.53;;;;;;;;;;5012574;28;20069;-61
2023/10/24 11:12:19;;;;;;;6.68;4.35;;;;;;;;;;5019119;28;20061;-62
2023/10/24 11:15:22;;;;;;;7.35;4.60;;;;;;;;;;5018994;28;20060;-61
2023/10/24 11:18:16;;;;;;;5.15;4.00;;;;;;;;;;5016480;28;20172;-62
2023/10/24 11:21:12;;;;;;;3.90;3.28;;;;;;;;;;5021220;28;20549;-62
2023/10/24 11:23:59;;;;;;;6.25;3.65;;;;;;;;;;5019287;28;20100;-59
2023/10/24 11:27:04;;;;;;;5.30;3.42;;;;;;;;;;5019388;28;20048;-49
2023/10/24 11:29:46;;;;;;;3.78;3.03;;;;;;;;;;5018055;28;20050;-47
2023/10/24 11:32:40;;;;;;;6.32;3.10;;;;;;;;;;5015750;28;20053;-51
2023/10/24 11:35:28;;;;;;;5.30;3.28;;;;;;;;;;5021087;28;20046;-48
2023/10/24 11:38:21;;;;;;;4.82;3.28;;;;;;;;;;5016368;28;20517;-47
2023/10/24 11:41:09;;;;;;;7.53;3.10;;;;;;;;;;5015343;28;20053;-51
2023/10/24 11:44:03;;;;;;;4.32;3.15;;;;;;;;;;5017372;28;20050;-62
2023/10/24 11:46:56;;;;;;;4.18;2.70;;;;;;;;;;5018881;28;20049;-62
2023/10/24 11:49:50;;;;;;;6.75;2.50;;;;;;;;;;5016585;28;20058;-62
2023/10/24 11:52:38;;;;;;;3.88;2.83;;;;;;;;;;5017830;28;20053;-62
2023/10/24 11:55:38;;;;;;;5.22;2.92;;;;;;;;;;5020745;28;20069;-62
2023/10/24 11:58:35;;;;;;;3.60;2.90;;;;;;;;;;5020335;28;20518;-62
2023/10/24 12:01:29;;;;;;;5.20;2.78;;;;;;;;;;5020315;28;20057;-52
2023/10/24 12:04:17;;;;;;;2.42;2.20;;;;;;;;;;5018327;28;20192;-62
2023/10/24 12:07:12;;;;;;;4.05;2.65;;;;;;;;;;5018634;28;20056;-62
2023/10/24 12:10:09;;;;;;;4.32;2.53;;;;;;;;;;5017314;28;20050;-61
2023/10/24 12:13:04;;;;;;;4.25;2.80;;;;;;;;;;5017682;28;20053;-61
2023/10/24 12:15:51;;;;;;;7.10;2.50;;;;;;;;;;5016865;28;20143;-61
2023/10/24 12:18:46;;;;;;;4.20;2.45;;;;;;;;;;5021088;28;20061;-62
2023/10/24 12:21:33;;;;;;;4.00;2.53;;;;;;;;;;5019208;28;20481;-50
2023/10/24 12:24:27;;;;;;;3.13;2.42;;;;;;;;;;5014445;28;20050;-47
2023/10/24 12:27:14;;;;;;;7.30;2.75;;;;;;;;;;5020107;28;20624;-49
2023/10/24 12:30:14;;;;;;;3.03;2.28;;;;;;;;;;5015588;28;20052;-49
2023/10/24 12:33:02;;;;;;;3.60;2.30;;;;;;;;;;5018325;28;20056;-47
2023/10/24 12:35:56;;;;;;;3.70;2.38;;;;;;;;;;5019213;28;20076;-61
2023/10/24 12:38:43;;;;;;;4.07;2.63;;;;;;;;;;5019998;28;20053;-63
2023/10/24 12:41:36;;;;;;;3.35;2.42;;;;;;;;;;5017465;28;20053;-64
2023/10/24 12:44:30;;;;;;;3.72;2.30;;;;;;;;;;5016431;28;20049;-65
2023/10/24 12:47:19;;;;;;;3.30;2.60;;;;;;;;;;5015444;28;20053;-64
2023/10/24 12:50:12;;;;;;;5.18;2.30;;;;;;;;;;5009169;28;22448;-65
2023/10/24 12:52:59;;;;;;;3.83;2.38;;;;;;;;;;5013152;28;20045;-63
2023/10/24 12:56:01;;;;;;;3.92;2.33;;;;;;;;;;5018040;28;20057;-48
2023/10/24 12:58:49;;;;;;;5.57;2.30;;;;;;;;;;5016735;28;20060;-62
2023/10/24 13:01:41;;;;;;;5.60;2.25;;;;;;;;;;5023215;28;20045;-62
2023/10/24 13:04:28;;;;;;;2.83;2.00;;;;;;;;;;5014944;28;20504;-62
2023/10/24 13:07:23;;;;;;;2.70;1.70;;;;;;;;;;5017895;28;20099;-61
2023/10/24 13:10:09;;;;;;;2.35;1.70;;;;;;;;;;5012857;28;20096;-62
2023/10/24 13:13:03;;;;;;;2.92;2.13;;;;;;;;;;5013466;28;20191;-59
2023/10/24 13:15:50;;;;;;;2.85;2.05;;;;;;;;;;5015942;28;20502;-60
2023/10/24 13:18:44;;;;;;;4.50;2.10;;;;;;;;;;5018483;28;20061;-50
2023/10/24 13:21:32;;;;;;;6.90;2.22;;;;;;;;;;5016519;28;20494;-49
2023/10/24 13:24:26;;;;;;;3.28;2.05;;;;;;;;;;5013505;28;20048;-49
2023/10/24 13:27:13;;;;;;;5.15;2.63;;;;;;;;;;5016426;28;20103;-49
2023/10/24 13:30:07;;;;;;;4.60;2.92;;;;;;;;;;5019652;28;20672;-49
2023/10/24 13:33:11;;;;;;;7.72;2.33;;;;;;;;;;5017904;28;20041;-60
2023/10/24 13:36:24;;;;;;;2.28;1.67;;;;;;;;;;5013823;28;20064;-59
2023/10/24 13:39:19;;;;;;;5.05;2.47;;;;;;;;;;5014482;28;20057;-58
2023/10/24 13:42:07;;;;;;;3.40;2.10;;;;;;;;;;5018696;28;20041;-59
2023/10/24 13:45:00;;;;;;;3.35;2.00;;;;;;;;;;5020032;28;20058;-59
2023/10/24 13:47:55;;;;;;;2.85;2.15;;;;;;;;;;5015323;28;20050;-59
2023/10/24 13:50:43;;;;;;;4.97;2.35;;;;;;;;;;5015738;28;20045;-59
2023/10/24 13:53:39;;;;;;;2.90;2.38;;;;;;;;;;5013481;28;20578;-65
2023/10/24 13:56:32;;;;;;;5.15;2.13;;;;;;;;;;5014561;28;20045;-65
2023/10/24 13:59:26;;;;;;;2.75;2.13;;;;;;;;;;5016782;28;20061;-65
2023/10/24 14:02:19;;;;;;;3.15;2.05;;;;;;;;;;5013658;28;20050;-64
2023/10/24 14:05:14;;;;;;;3.30;1.95;;;;;;;;;;5014819;28;20057;-64
2023/10/24 14:07:42;;;;;;;2.95;2.22;;;;;;;;;;5012010;28;20061;-63
2023/10/24 14:10:35;;;;;;;3.17;2.10;;;;;;;;;;5015984;28;22159;-63
2023/10/24 14:13:22;;;;;;;6.25;2.22;;;;;;;;;;5013736;28;20052;-58
2023/10/24 14:16:30;;;;;;;3.22;1.88;;;;;;;;;;5017403;28;20071;-59
2023/10/24 14:19:31;;;;;;;3.13;2.00;;;;;;;;;;5013401;28;20053;-59
2023/10/24 14:22:26;;;;;;;5.68;1.75;;;;;;;;;;5013325;28;20061;-59
2023/10/24 14:25:13;;;;;;;4.75;1.52;;;;;;;;;;5013066;28;20052;-59
2023/10/24 14:28:06;;;;;;;2.58;1.83;;;;;;;;;;5018441;28;20057;-60
2023/10/24 14:30:54;;;;;;;5.30;2.20;;;;;;;;;;5018020;28;20061;-48
2023/10/24 14:33:48;;;;;;;3.10;2.10;;;;;;;;;;5014227;28;20054;-53
2023/10/24 14:36:35;;;;;;;3.50;1.75;;;;;;;;;;5012485;28;20080;-50
2023/10/24 14:39:30;;;;;;;2.58;1.70;;;;;;;;;;5014561;28;20057;-49
2023/10/24 14:42:18;;;;;;;2.25;1.55;;;;;;;;;;5016544;28;20178;-50
2023/10/24 14:45:12;;;;;;;3.88;2.00;;;;;;;;;;5013050;28;20499;-60
2023/10/24 14:47:59;;;;;;;4.35;2.03;;;;;;;;;;5021215;28;20053;-61
2023/10/24 14:50:54;;;;;;;3.97;2.00;;;;;;;;;;5012974;28;20076;-63
2023/10/24 14:53:41;;;;;;;3.50;1.73;;;;;;;;;;5013100;28;20065;-62
2023/10/24 14:56:42;;;;;;;4.60;2.03;;;;;;;;;;5013947;28;20061;-62
2023/10/24 14:59:29;;;;;;;3.42;2.08;;;;;;;;;;5012000;28;20510;-62
2023/10/24 15:02:23;;;;;;;3.83;2.28;;;;;;;;;;5011016;28;20115;-62
2023/10/24 15:05:10;;;;;;;2.97;1.92;;;;;;;;;;5009828;28;20065;-52
2023/10/24 15:08:06;;;;;;;3.40;2.10;;;;;;;;;;5011483;28;20053;-62
2023/10/24 15:10:33;;;;;;;2.85;2.08;;;;;;;;;;5016466;28;20049;-62
2023/10/24 15:13:27;;;;;;;3.83;2.10;;;;;;;;;;5005042;28;20054;-63
2023/10/24 15:16:21;;;;;;;2.72;1.77;;;;;;;;;;5007072;28;20068;-62
2023/10/24 15:18:50;;;;;;;3.45;2.05;;;;;;;;;;5002837;28;20049;-63
2023/10/24 15:21:42;;;;;;;6.78;1.90;;;;;;;;;;5011177;28;20078;-52
2023/10/24 15:24:29;;;;;;;3.60;1.83;;;;;;;;;;5012224;28;20632;-63
2023/10/24 15:27:23;;;;;;;2.90;1.95;;;;;;;;;;5014988;28;20053;-60
2023/10/24 15:30:10;;;;;;;3.45;2.22;;;;;;;;;;5016458;28;20122;-60
2023/10/24 15:33:02;;;;;;;2.75;1.88;;;;;;;;;;5013246;28;20133;-60
2023/10/24 15:35:29;;;;;;;;;;;;;;;;;;5011022;28;20547;-59
2023/10/24 15:38:23;;;;;;;4.22;1.67;;;;;;;;;;5014444;28;19972;-59
2023/10/24 15:41:10;;;;;;;4.30;2.10;;;;;;;;;;5015760;28;20042;-52
2023/10/24 15:44:04;;;;;;;3.75;1.77;;;;;;;;;;5014595;28;20091;-59
2023/10/24 15:46:51;;;;;;;5.43;1.70;;;;;;;;;;5013482;28;20061;-59
2023/10/24 15:49:45;;;;;;;2.88;2.13;;;;;;;;;;5009823;28;20064;-58
2023/10/24 15:52:32;;;;;;;5.10;1.77;;;;;;;;;;5012630;28;20049;-59
2023/10/24 15:55:33;;;;;;;4.72;1.75;;;;;;;;;;5011931;28;20054;-59
2023/10/24 15:58:20;;;;;;;2.20;1.63;;;;;;;;;;5007929;28;20049;-64
2023/10/24 16:01:15;;;;;;;2.78;1.58;;;;;;;;;;5015584;28;20069;-59
2023/10/24 16:04:03;;;;;;;2.05;1.60;;;;;;;;;;5010217;28;22163;-60
2023/10/24 16:07:00;;;;;;;2.25;1.40;;;;;;;;;;5012308;28;20423;-59
2023/10/24 16:09:45;;;;;;;2.03;1.58;;;;;;;;;;5016428;28;20459;-60
2023/10/24 16:12:39;;;;;;;2.97;1.40;;;;;;;;;;5014920;28;20057;-60
2023/10/24 16:15:26;;;;;;;3.72;1.55;;;;;;;;;;5013922;28;20143;-60
2023/10/24 16:18:20;;;;;;;1.92;1.60;;;;;;;;;;5014630;28;20050;-63
2023/10/24 16:21:07;;;;;;;2.50;1.30;;;;;;;;;;5010475;28;20057;-60
2023/10/24 16:24:01;;;;;;;1.83;1.50;;;;;;;;;;5011607;28;20104;-60
2023/10/24 16:26:48;;;;;;;2.35;1.40;;;;;;;;;;5013658;28;20444;-60
2023/10/24 16:29:42;;;;;;;2.60;1.23;;;;;;;;;;5013151;28;20107;-60
2023/10/24 16:32:29;;;;;;;3.08;1.33;;;;;;;;;;5015060;28;20060;-60
2023/10/24 16:35:23;;;;;;;1.58;1.25;;;;;;;;;;5014900;28;20060;-64
2023/10/24 16:38:10;;;;;;;1.60;1.30;;;;;;;;;;5012079;28;20064;-63
2023/10/24 16:41:04;;;;;;;8.63;1.50;;;;;;;;;;5010454;28;20068;-64
2023/10/24 16:43:51;;;;;;;1.48;1.17;;;;;;;;;;5016009;28;20081;-64
2023/10/24 16:46:48;;;;;;;3.50;1.05;;;;;;;;;;5012313;28;20803;-64
2023/10/24 16:49:35;;;;;;;2.13;1.20;;;;;;;;;;5018174;28;20045;-63
2023/10/24 16:52:30;;;;;;;2.10;1.20;;;;;;;;;;5015751;28;20052;-63
2023/10/24 16:55:23;;;;;;;2.17;1.40;;;;;;;;;;5013613;28;20062;-63
2023/10/24 16:58:26;;;;;;;1.95;1.33;;;;;;;;;;5017612;28;20057;-64
2023/10/24 17:01:14;;;;;;;1.80;1.23;;;;;;;;;;5010004;28;20064;-63